Time;durP1;ratioP1;P1;durP2;ratioP2;P2;SDS_P1;SDS_P2;PMS_P1;PMS_P2;Temp;Humidity;BMP_temperature;BMP_pressure;BME280_temperature;BME280_humidity;BME280_pressure;Samples;Min_cycle;Max_cycle;Signal;HPM_P1;HPM_P2
2022/04/29 00:02:13;;;;;;;4.68;4.00;;;6.30;99.90;;;;;;4975894;29;20007;-79
2022/04/29 00:04:39;;;;;;;4.28;2.95;;;6.40;99.90;;;;;;4975682;29;20007;-78
2022/04/29 00:07:30;;;;;;;3.50;3.20;;;6.20;99.90;;;;;;4975447;29;20063;-81
2022/04/29 00:10:00;;;;;;;3.85;3.30;;;6.10;99.90;;;;;;4975631;28;20528;-80
2022/04/29 00:12:26;;;;;;;7.45;4.43;;;5.90;99.90;;;;;;4975349;29;20019;-80
2022/04/29 00:14:52;;;;;;;6.47;5.05;;;5.90;99.90;;;;;;4976128;28;20027;-78
2022/04/29 00:17:18;;;;;;;5.03;3.85;;;6.00;99.90;;;;;;4975866;29;20054;-79
2022/04/29 00:19:45;;;;;;;5.57;4.13;;;6.10;99.90;;;;;;4976229;29;20027;-78
2022/04/29 00:22:11;;;;;;;4.65;3.80;;;6.10;99.90;;;;;;4974562;28;20011;-79
2022/04/29 00:24:37;;;;;;;4.50;3.63;;;6.20;99.90;;;;;;4977459;29;20047;-78
2022/04/29 00:27:03;;;;;;;6.07;3.70;;;6.10;99.90;;;;;;4978333;28;20031;-79
2022/04/29 00:29:29;;;;;;;10.23;3.25;;;6.00;99.90;;;;;;4979169;29;20027;-78
2022/04/29 00:31:55;;;;;;;11.15;4.30;;;5.90;99.90;;;;;;4978732;28;20036;-79
2022/04/29 00:34:20;;;;;;;6.47;4.20;;;5.80;99.90;;;;;;4976204;29;20031;-78
2022/04/29 00:36:46;;;;;;;4.95;4.15;;;5.90;99.90;;;;;;4977911;29;20111;-79
2022/04/29 00:39:16;;;;;;;4.35;3.85;;;6.00;99.90;;;;;;4978223;29;20020;-78
2022/04/29 00:42:10;;;;;;;5.53;4.05;;;5.90;99.90;;;;;;4976322;29;20012;-79
2022/04/29 00:44:41;;;;;;;5.68;4.97;;;6.00;99.90;;;;;;4977183;29;20099;-78
2022/04/29 00:47:11;;;;;;;6.60;5.18;;;6.00;99.90;;;;;;4977904;29;20038;-79
2022/04/29 00:49:37;;;;;;;5.22;4.47;;;6.00;99.90;;;;;;4976898;29;20078;-78
2022/04/29 00:52:07;;;;;;;5.20;4.35;;;6.00;99.90;;;;;;4977051;29;20027;-82
2022/04/29 00:54:36;;;;;;;6.50;4.20;;;6.10;99.90;;;;;;4975690;29;20051;-79
2022/04/29 00:57:06;;;;;;;5.93;4.00;;;6.00;99.90;;;;;;4976309;29;20011;-79
2022/04/29 01:00:11;;;;;;;4.90;3.78;;;6.00;99.90;;;;;;4976077;29;20027;-79
2022/04/29 01:02:47;;;;;;;3.88;3.33;;;5.80;99.90;;;;;;4977123;29;20043;-79
2022/04/29 01:05:15;;;;;;;5.53;3.53;;;5.70;99.90;;;;;;4979124;28;20047;-80
2022/04/29 01:07:44;;;;;;;5.30;4.17;;;5.60;99.90;;;;;;4978532;29;20019;-79
2022/04/29 01:10:12;;;;;;;4.22;3.75;;;5.50;99.90;;;;;;4978122;29;20278;-80
2022/04/29 01:12:41;;;;;;;5.70;4.28;;;5.30;99.90;;;;;;4979476;29;20088;-79
2022/04/29 01:15:19;;;;;;;4.33;3.80;;;5.40;99.90;;;;;;4978484;29;20046;-79
2022/04/29 01:17:47;;;;;;;6.10;4.00;;;5.30;99.90;;;;;;4979055;29;20071;-78
2022/04/29 01:20:20;;;;;;;5.47;3.85;;;5.40;99.90;;;;;;4978808;28;20032;-79
2022/04/29 01:22:46;;;;;;;6.78;3.97;;;5.50;99.90;;;;;;4978702;28;20625;-79
2022/04/29 01:25:13;;;;;;;4.57;3.55;;;5.50;99.90;;;;;;4979174;28;20032;-79
2022/04/29 01:27:38;;;;;;;7.05;3.80;;;5.40;99.90;;;;;;4978044;29;20027;-79
2022/04/29 01:30:06;;;;;;;3.40;3.10;;;5.40;99.90;;;;;;4979442;28;20043;-80
2022/04/29 01:32:33;;;;;;;5.78;4.65;;;5.30;99.90;;;;;;4979094;29;20007;-80
2022/04/29 01:35:00;;;;;;;4.90;4.30;;;5.30;99.90;;;;;;4977768;28;20019;-79
2022/04/29 01:37:26;;;;;;;5.75;4.40;;;5.40;99.90;;;;;;4979350;28;20011;-78
2022/04/29 01:39:51;;;;;;;5.72;4.28;;;5.50;99.90;;;;;;4979316;28;20027;-80
2022/04/29 01:42:17;;;;;;;4.80;4.13;;;5.50;99.90;;;;;;4979254;28;20022;-80
2022/04/29 01:44:45;;;;;;;5.13;3.83;;;5.50;99.90;;;;;;4979145;29;20007;-79
2022/04/29 01:47:11;;;;;;;5.68;4.10;;;5.40;99.90;;;;;;4979020;29;20010;-78
2022/04/29 01:49:40;;;;;;;5.40;4.32;;;5.20;99.90;;;;;;4979086;28;20067;-80
2022/04/29 01:52:06;;;;;;;5.47;4.22;;;5.10;99.90;;;;;;4978805;28;20027;-81
2022/04/29 01:54:34;;;;;;;4.82;4.10;;;5.10;99.90;;;;;;4975361;29;20108;-80
2022/04/29 01:57:00;;;;;;;6.18;4.47;;;5.10;99.90;;;;;;4978393;28;20046;-79
2022/04/29 01:59:28;;;;;;;7.35;4.80;;;5.20;99.90;;;;;;4978858;28;20016;-79
2022/04/29 02:01:53;;;;;;;4.13;3.63;;;5.10;99.90;;;;;;4979918;28;20038;-78
2022/04/29 02:04:19;;;;;;;5.20;4.10;;;5.20;99.90;;;;;;4979332;28;20027;-79
2022/04/29 02:06:45;;;;;;;6.80;4.65;;;5.20;99.90;;;;;;4979833;28;20015;-79
2022/04/29 02:09:11;;;;;;;7.22;4.30;;;5.10;99.90;;;;;;4979213;28;20043;-79
2022/04/29 02:11:36;;;;;;;7.55;4.70;;;5.00;99.90;;;;;;4979492;28;20019;-79
2022/04/29 02:14:02;;;;;;;7.88;4.68;;;5.00;99.90;;;;;;4978950;28;20043;-77
2022/04/29 02:16:28;;;;;;;7.70;4.70;;;5.10;99.90;;;;;;4978951;28;20039;-79
2022/04/29 02:18:54;;;;;;;6.53;4.95;;;5.30;99.90;;;;;;4979619;28;20011;-80
2022/04/29 02:21:49;;;;;;;6.15;4.63;;;5.30;99.90;;;;;;4978803;28;20058;-80
2022/04/29 02:24:15;;;;;;;5.40;4.35;;;5.30;99.90;;;;;;4978557;28;20027;-80
2022/04/29 02:26:41;;;;;;;4.72;4.13;;;5.20;99.90;;;;;;4978465;29;20035;-80
2022/04/29 02:29:09;;;;;;;4.97;3.80;;;5.00;99.90;;;;;;4979347;28;20019;-80
2022/04/29 02:31:35;;;;;;;6.35;4.32;;;5.00;99.90;;;;;;4979567;28;20094;-79
2022/04/29 02:34:14;;;;;;;7.80;4.72;;;5.10;99.90;;;;;;4978508;28;20086;-79
2022/04/29 02:36:41;;;;;;;6.15;3.92;;;5.00;99.90;;;;;;4979920;28;20058;-80
2022/04/29 02:39:38;;;;;;;4.65;3.63;;;5.00;99.90;;;;;;4979480;28;20012;-78
2022/04/29 02:42:06;;;;;;;6.35;4.95;;;4.90;99.90;;;;;;4976333;28;20020;-79
2022/04/29 02:44:32;;;;;;;8.30;5.63;;;5.00;99.90;;;;;;4979061;28;20019;-78
2022/04/29 02:47:07;;;;;;;7.18;4.90;;;5.00;99.90;;;;;;4978774;28;20015;-78
2022/04/29 02:49:35;;;;;;;6.72;4.68;;;5.00;99.90;;;;;;4979018;28;20027;-78
2022/04/29 02:52:00;;;;;;;7.65;5.28;;;4.90;99.90;;;;;;4978961;28;20023;-80
2022/04/29 02:54:26;;;;;;;6.43;4.47;;;4.90;99.90;;;;;;4978208;28;20038;-80
2022/04/29 02:56:52;;;;;;;8.57;4.63;;;4.80;99.90;;;;;;4978713;28;20027;-79
2022/04/29 02:59:19;;;;;;;4.60;4.15;;;4.70;99.90;;;;;;4979034;28;20011;-80
2022/04/29 03:01:46;;;;;;;6.10;5.07;;;4.60;99.90;;;;;;4978702;28;20035;-80
2022/04/29 03:04:12;;;;;;;7.63;4.25;;;4.30;99.90;;;;;;4979119;28;20087;-79
2022/04/29 03:06:38;;;;;;;6.40;4.38;;;4.30;99.90;;;;;;4979032;28;20031;-79
2022/04/29 03:09:04;;;;;;;8.60;4.80;;;4.30;99.90;;;;;;4979185;28;20039;-78
2022/04/29 03:11:30;;;;;;;4.45;3.67;;;4.30;99.90;;;;;;4978875;28;20031;-79
2022/04/29 03:13:55;;;;;;;8.18;4.90;;;4.20;99.90;;;;;;4979120;28;20010;-79
2022/04/29 03:16:21;;;;;;;6.70;5.00;;;4.30;99.90;;;;;;4979323;28;20023;-80
2022/04/29 03:18:47;;;;;;;5.85;4.25;;;4.40;99.90;;;;;;4979461;28;20031;-80
2022/04/29 03:21:13;;;;;;;7.88;4.75;;;4.50;99.90;;;;;;4979754;28;20046;-79
2022/04/29 03:23:39;;;;;;;7.80;5.30;;;4.50;99.90;;;;;;4978850;28;20011;-79
2022/04/29 03:26:05;;;;;;;6.45;5.43;;;4.40;99.90;;;;;;4979835;28;20043;-77
2022/04/29 03:28:32;;;;;;;9.40;4.40;;;4.30;99.90;;;;;;4978002;28;20015;-81
2022/04/29 03:30:59;;;;;;;7.45;4.97;;;4.30;99.90;;;;;;4977506;28;20039;-83
2022/04/29 03:33:25;;;;;;;10.90;4.55;;;4.40;99.90;;;;;;4977791;28;20035;-81
2022/04/29 03:35:50;;;;;;;8.65;4.47;;;4.40;99.90;;;;;;4974504;28;20111;-80
2022/04/29 03:38:16;;;;;;;6.97;4.07;;;4.30;99.90;;;;;;4973058;29;20037;-79
2022/04/29 03:40:42;;;;;;;6.75;4.50;;;4.20;99.90;;;;;;4973512;29;20043;-78
2022/04/29 03:43:08;;;;;;;5.70;4.70;;;4.10;99.90;;;;;;4973959;29;20031;-79
2022/04/29 03:45:34;;;;;;;5.88;4.88;;;4.10;99.90;;;;;;4973945;29;20144;-79
2022/04/29 03:48:00;;;;;;;6.82;4.78;;;4.30;99.90;;;;;;4973967;29;20046;-81
2022/04/29 03:50:28;;;;;;;6.10;4.18;;;4.20;99.90;;;;;;4974345;28;20019;-80
2022/04/29 03:52:55;;;;;;;5.07;4.40;;;4.20;99.90;;;;;;4975059;29;20019;-79
2022/04/29 03:55:22;;;;;;;7.00;4.43;;;4.20;99.90;;;;;;4974177;28;20067;-79
2022/04/29 03:57:49;;;;;;;5.95;4.28;;;4.20;99.90;;;;;;4975706;28;20050;-79
2022/04/29 04:00:50;;;;;;;5.15;4.05;;;4.20;99.90;;;;;;4977494;29;20031;-79
2022/04/29 04:03:16;;;;;;;4.45;3.65;;;4.00;99.90;;;;;;4977520;29;20042;-79
2022/04/29 04:06:49;;;;;;;8.45;4.28;;;4.00;99.90;;;;;;4978167;29;20028;-79
2022/04/29 04:08:27;;;;;;;7.68;5.45;;;4.10;99.90;;;;;;4978650;29;20031;-80
2022/04/29 04:10:53;;;;;;;6.68;4.65;;;4.10;99.90;;;;;;4978561;29;20027;-79
2022/04/29 04:13:18;;;;;;;5.75;4.63;;;4.00;99.90;;;;;;4978697;29;20023;-80
2022/04/29 04:15:44;;;;;;;8.57;5.15;;;4.00;99.90;;;;;;4978947;29;20014;-78
2022/04/29 04:18:10;;;;;;;7.88;5.72;;;4.10;99.90;;;;;;4979334;29;20013;-79
2022/04/29 04:20:36;;;;;;;8.80;5.75;;;4.30;99.90;;;;;;4978366;29;20010;-78
2022/04/29 04:25:42;;;;;;;8.52;4.82;;;4.30;99.90;;;;;;4978719;29;20015;-81
2022/04/29 04:28:13;;;;;;;6.72;4.57;;;4.20;99.90;;;;;;4979259;28;20091;-79
2022/04/29 04:30:39;;;;;;;6.65;5.05;;;4.10;99.90;;;;;;4978842;28;20011;-79
2022/04/29 04:33:17;;;;;;;6.95;4.93;;;4.10;99.90;;;;;;4978618;29;20030;-79
2022/04/29 04:35:42;;;;;;;6.88;4.82;;;4.20;99.90;;;;;;4978169;29;20102;-79
2022/04/29 04:38:08;;;;;;;8.38;5.10;;;4.20;99.90;;;;;;4977977;29;20031;-79
2022/04/29 04:40:34;;;;;;;8.77;5.47;;;4.30;99.90;;;;;;4979424;29;20004;-78
2022/04/29 04:42:59;;;;;;;5.78;4.60;;;4.40;99.90;;;;;;4979331;29;20027;-79
2022/04/29 04:45:25;;;;;;;6.28;4.78;;;4.50;99.90;;;;;;4978084;29;20028;-79
2022/04/29 04:47:51;;;;;;;6.38;4.97;;;4.50;99.90;;;;;;4977881;29;20097;-79
2022/04/29 04:50:16;;;;;;;7.68;4.75;;;4.70;99.90;;;;;;4978331;29;20059;-80
2022/04/29 04:52:44;;;;;;;7.90;5.00;;;4.70;99.90;;;;;;4977117;29;20035;-81
2022/04/29 04:55:10;;;;;;;6.72;4.75;;;4.70;99.90;;;;;;4977624;29;20043;-79
2022/04/29 04:57:52;;;;;;;8.30;4.65;;;4.80;99.90;;;;;;4976175;29;20090;-81
2022/04/29 05:00:18;;;;;;;7.75;5.03;;;4.80;99.90;;;;;;4975323;29;20085;-79
2022/04/29 05:02:43;;;;;;;6.97;5.07;;;4.90;99.90;;;;;;4972018;29;20027;-81
2022/04/29 05:05:10;;;;;;;6.82;5.25;;;5.90;99.90;;;;;;4976253;29;20035;-81
2022/04/29 05:07:38;;;;;;;6.55;5.40;;;5.10;99.90;;;;;;4976985;29;20067;-80
2022/04/29 05:10:11;;;;;;;6.10;4.68;;;5.20;99.90;;;;;;4975640;28;20027;-81
2022/04/29 05:12:40;;;;;;;7.60;4.30;;;5.30;99.90;;;;;;4975946;29;20103;-82
2022/04/29 05:15:07;;;;;;;6.10;4.65;;;5.50;99.90;;;;;;4974987;29;20035;-83
2022/04/29 05:17:40;;;;;;;7.40;4.60;;;5.50;99.90;;;;;;4968475;29;20054;-81
2022/04/29 05:20:09;;;;;;;5.63;4.10;;;5.70;99.90;;;;;;4976749;29;20117;-82
2022/04/29 05:22:36;;;;;;;7.57;5.55;;;5.70;99.90;;;;;;4972986;29;20086;-83
2022/04/29 05:25:02;;;;;;;4.93;4.25;;;5.90;99.90;;;;;;4971348;29;20027;-82
2022/04/29 05:27:27;;;;;;;6.20;4.70;;;6.00;99.90;;;;;;4971307;29;20046;-80
2022/04/29 05:29:53;;;;;;;7.05;4.32;;;6.20;99.90;;;;;;4972936;28;20087;-83
2022/04/29 05:32:19;;;;;;;5.38;4.20;;;6.50;99.90;;;;;;4973070;29;20019;-84
2022/04/29 05:34:46;;;;;;;6.43;4.60;;;6.70;99.90;;;;;;4972831;29;20037;-83
2022/04/29 05:37:13;;;;;;;5.72;4.70;;;6.90;99.90;;;;;;4971978;29;20062;-83
2022/04/29 05:42:24;;;;;;;3.95;3.60;;;7.20;99.90;;;;;;4974454;29;20034;-82
2022/04/29 05:44:50;;;;;;;5.07;4.57;;;7.60;99.90;;;;;;4975209;29;20019;-81
2022/04/29 05:47:16;;;;;;;7.05;4.40;;;7.90;99.90;;;;;;4974446;29;20015;-82
2022/04/29 05:49:42;;;;;;;5.50;4.07;;;8.10;99.90;;;;;;4975711;29;20051;-81
2022/04/29 05:52:08;;;;;;;4.43;3.78;;;8.40;99.90;;;;;;4976974;28;20222;-83
2022/04/29 05:54:35;;;;;;;5.85;4.75;;;8.60;99.90;;;;;;4975125;29;20003;-81
2022/04/29 05:57:01;;;;;;;7.20;5.18;;;8.80;99.90;;;;;;4976973;29;20062;-81
2022/04/29 05:59:28;;;;;;;4.50;3.45;;;9.10;99.90;;;;;;4975603;29;20012;-78
2022/04/29 06:02:00;;;;;;;4.50;3.65;;;9.40;99.90;;;;;;4976787;28;20035;-80
2022/04/29 06:05:09;;;;;;;3.75;3.30;;;9.60;99.90;;;;;;4979651;29;20055;-79
2022/04/29 06:07:59;;;;;;;5.40;3.40;;;10.00;99.90;;;;;;4978163;28;20011;-79
2022/04/29 06:10:45;;;;;;;3.10;2.80;;;10.20;99.90;;;;;;4977939;29;20019;-78
2022/04/29 06:13:11;;;;;;;4.60;3.53;;;10.60;99.90;;;;;;4976340;28;20027;-77
2022/04/29 06:15:37;;;;;;;4.68;3.40;;;11.10;99.90;;;;;;4973832;28;20476;-78
2022/04/29 06:18:03;;;;;;;4.68;3.05;;;11.30;99.90;;;;;;4954406;29;20127;-75
2022/04/29 06:20:29;;;;;;;3.63;3.08;;;11.90;99.90;;;;;;4952756;28;20043;-76
2022/04/29 06:22:56;;;;;;;5.00;4.53;;;12.50;99.90;;;;;;4954714;29;20512;-75
2022/04/29 06:25:22;;;;;;;4.50;3.83;;;13.20;99.90;;;;;;4954451;28;20055;-78
2022/04/29 06:27:48;;;;;;;5.40;3.35;;;13.80;99.90;;;;;;4986319;28;20030;-76
2022/04/29 06:30:14;;;;;;;4.35;3.95;;;14.20;99.90;;;;;;4972070;28;20033;-77
2022/04/29 06:32:40;;;;;;;7.15;3.85;;;14.50;99.90;;;;;;4975006;28;20403;-77
2022/04/29 06:35:06;;;;;;;5.63;3.92;;;14.80;99.90;;;;;;4971034;28;20054;-76
2022/04/29 06:37:33;;;;;;;4.00;3.55;;;15.00;99.90;;;;;;4944072;29;20039;-83
2022/04/29 06:39:58;;;;;;;10.07;3.83;;;14.60;99.90;;;;;;4936995;29;20077;-80
2022/04/29 06:42:24;;;;;;;4.38;3.95;;;14.80;99.90;;;;;;4960547;28;20039;-83
2022/04/29 06:44:50;;;;;;;7.97;4.53;;;;;;;;;;4975831;28;20427;-82
2022/04/29 06:47:17;;;;;;;7.68;4.88;;;14.90;99.90;;;;;;4967794;28;20035;-81
2022/04/29 06:49:43;;;;;;;10.85;4.97;;;15.00;99.90;;;;;;4973062;28;20509;-81
2022/04/29 06:52:09;;;;;;;7.60;4.45;;;15.20;99.90;;;;;;4969015;28;20123;-78
2022/04/29 06:54:35;;;;;;;5.55;4.00;;;15.70;99.90;;;;;;4968193;28;20039;-78
2022/04/29 06:57:01;;;;;;;4.32;3.92;;;16.20;95.60;;;;;;4972985;28;20142;-76
2022/04/29 06:59:27;;;;;;;5.72;4.35;;;16.00;77.10;;;;;;4975819;28;20341;-78
2022/04/29 07:01:53;;;;;;;6.13;3.83;;;15.90;81.20;;;;;;4971895;28;20023;-77
2022/04/29 07:04:19;;;;;;;6.13;4.00;;;15.60;90.90;;;;;;4971212;28;20357;-78
2022/04/29 07:06:45;;;;;;;7.20;3.80;;;15.50;99.90;;;;;;4978706;28;20026;-76
2022/04/29 07:09:10;;;;;;;5.85;4.05;;;15.40;99.00;;;;;;4971523;28;20041;-77
2022/04/29 07:11:36;;;;;;;4.78;4.10;;;15.40;97.90;;;;;;4974401;28;20122;-77
2022/04/29 07:14:02;;;;;;;4.32;3.92;;;15.50;99.90;;;;;;4975060;28;20555;-77
2022/04/29 07:16:30;;;;;;;6.05;4.85;;;15.20;99.90;;;;;;4979047;28;20039;-77
2022/04/29 07:18:57;;;;;;;7.55;4.15;;;14.70;99.90;;;;;;4970922;28;20019;-76
2022/04/29 07:21:23;;;;;;;4.18;3.72;;;14.50;99.90;;;;;;4958002;28;20563;-76
2022/04/29 07:23:49;;;;;;;5.00;4.18;;;14.10;99.90;;;;;;4958752;29;20075;-77
2022/04/29 07:26:15;;;;;;;4.75;3.90;;;13.60;99.90;;;;;;4959325;29;20031;-77
2022/04/29 07:28:41;;;;;;;6.53;5.00;;;13.50;99.90;;;;;;4957957;28;20086;-78
2022/04/29 07:31:07;;;;;;;5.78;4.50;;;13.20;99.90;;;;;;4960039;28;20032;-79
2022/04/29 07:33:33;;;;;;;5.38;4.70;;;13.50;99.90;;;;;;4957471;29;20030;-79
2022/04/29 07:41:45;;;;;;;8.20;5.28;;;14.10;99.90;;;;;;4959562;29;20513;-78
2022/04/29 07:44:11;;;;;;;10.88;6.22;;;14.10;99.90;;;;;;4958242;29;20027;-79
2022/04/29 07:46:37;;;;;;;7.78;4.70;;;13.70;99.90;;;;;;4956542;29;20055;-80
2022/04/29 07:49:03;;;;;;;7.18;4.75;;;13.70;99.90;;;;;;4959507;29;20061;-81
2022/04/29 07:51:29;;;;;;;7.68;4.97;;;13.70;99.90;;;;;;4956759;28;20035;-77
2022/04/29 07:53:55;;;;;;;9.00;4.90;;;13.70;99.90;;;;;;4954593;29;20150;-78
2022/04/29 07:56:21;;;;;;;6.60;4.40;;;14.00;99.90;;;;;;4953825;29;20239;-77
2022/04/29 07:58:46;;;;;;;5.68;4.22;;;14.10;99.90;;;;;;4954831;29;20041;-80
2022/04/29 08:01:12;;;;;;;6.97;4.53;;;14.40;99.90;;;;;;4952004;29;20038;-78
2022/04/29 08:03:39;;;;;;;6.30;4.20;;;14.40;99.90;;;;;;4952444;29;20098;-78
2022/04/29 08:06:06;;;;;;;7.70;4.55;;;14.30;99.90;;;;;;4951784;29;20043;-78
2022/04/29 08:08:33;;;;;;;7.45;5.00;;;14.70;99.90;;;;;;4948911;29;20272;-78
2022/04/29 08:10:59;;;;;;;7.40;5.00;;;;;;;;;;4948135;28;20036;-79
2022/04/29 08:13:25;;;;;;;6.82;4.72;;;15.70;92.70;;;;;;4947853;29;20488;-82
2022/04/29 08:15:51;;;;;;;5.30;4.65;;;16.40;94.00;;;;;;4947392;29;20062;-78
2022/04/29 08:18:18;;;;;;;9.32;4.40;;;16.80;91.70;;;;;;4947316;29;20059;-80
2022/04/29 08:20:44;;;;;;;8.32;4.95;;;17.20;72.90;;;;;;4967928;28;20082;-79
2022/04/29 08:23:09;;;;;;;7.38;4.13;;;16.20;74.20;;;;;;4967724;28;20023;-78
2022/04/29 08:25:36;;;;;;;3.85;3.42;;;16.30;77.00;;;;;;4968568;28;20073;-78
2022/04/29 08:28:03;;;;;;;6.63;4.00;;;16.50;71.70;;;;;;4970243;28;20023;-80
2022/04/29 08:30:32;;;;;;;9.07;4.78;;;16.50;68.70;;;;;;4972116;28;20039;-79
2022/04/29 08:32:59;;;;;;;9.43;4.95;;;16.50;68.90;;;;;;4973942;28;20440;-79
2022/04/29 08:35:26;;;;;;;5.88;3.90;;;16.20;70.10;;;;;;4968109;28;20403;-80
2022/04/29 08:37:54;;;;;;;7.35;4.47;;;17.10;70.20;;;;;;4966192;28;20023;-80
2022/04/29 08:40:21;;;;;;;9.98;4.70;;;17.70;65.20;;;;;;4966152;28;20511;-80
2022/04/29 08:42:47;;;;;;;7.03;4.40;;;17.50;60.40;;;;;;4967383;28;20045;-82
2022/04/29 08:45:15;;;;;;;5.80;3.83;;;17.50;60.30;;;;;;4971342;28;20109;-81
2022/04/29 08:47:42;;;;;;;7.80;4.75;;;17.70;61.10;;;;;;4972542;28;20027;-81
2022/04/29 08:50:14;;;;;;;6.00;3.97;;;16.70;61.50;;;;;;4973337;28;20074;-81
2022/04/29 08:52:40;;;;;;;9.45;4.18;;;16.60;62.10;;;;;;4973144;28;20103;-80
2022/04/29 09:01:03;;;;;;;5.75;4.35;;;16.90;63.50;;;;;;4931305;29;20694;-78
2022/04/29 09:03:29;;;;;;;6.88;4.68;;;17.20;63.00;;;;;;4934869;29;20285;-78
2022/04/29 09:05:55;;;;;;;6.50;4.47;;;17.40;62.30;;;;;;4954970;28;20246;-78
2022/04/29 09:08:22;;;;;;;8.35;4.70;;;17.20;61.40;;;;;;4970959;28;20081;-79
2022/04/29 09:10:51;;;;;;;5.68;3.95;;;17.50;62.90;;;;;;4971046;28;20110;-77
2022/04/29 09:13:18;;;;;;;5.85;3.88;;;18.10;63.20;;;;;;4973049;28;20408;-79
2022/04/29 09:15:58;;;;;;;6.60;4.35;;;17.20;62.90;;;;;;4978340;28;20038;-83
2022/04/29 09:18:44;;;;;;;5.82;4.55;;;17.00;62.30;;;;;;4982216;28;20319;-81
2022/04/29 09:21:10;;;;;;;5.40;3.92;;;16.60;65.00;;;;;;4961935;29;20035;-81
2022/04/29 09:23:42;;;;;;;5.53;4.15;;;16.70;75.60;;;;;;4958034;29;20030;-82
2022/04/29 09:26:22;;;;;;;8.18;4.70;;;16.80;62.70;;;;;;4960963;28;20019;-80
2022/04/29 09:28:49;;;;;;;13.45;5.00;;;16.80;63.40;;;;;;4960969;29;20090;-80
2022/04/29 09:31:16;;;;;;;15.93;5.10;;;17.20;63.80;;;;;;4949363;29;20046;-79
2022/04/29 09:33:55;;;;;;;9.32;5.60;;;17.30;65.60;;;;;;4958049;29;20031;-80
2022/04/29 09:36:23;;;;;;;8.32;5.20;;;;;;;;;;4969438;29;20046;-83
2022/04/29 09:41:59;;;;;;;6.90;4.75;;;17.10;68.80;;;;;;4963497;29;20058;-80
2022/04/29 09:44:27;;;;;;;6.00;4.70;;;17.30;65.10;;;;;;4957578;29;20099;-82
2022/04/29 09:46:53;;;;;;;6.90;5.15;;;17.10;66.10;;;;;;4960292;29;20030;-81
2022/04/29 09:49:19;;;;;;;8.75;5.32;;;16.90;71.90;;;;;;4958839;28;20039;-79
2022/04/29 09:51:49;;;;;;;8.38;5.10;;;17.20;72.20;;;;;;4961069;29;20035;-80
2022/04/29 09:54:26;;;;;;;7.35;4.40;;;17.20;66.50;;;;;;4960127;28;20030;-82
2022/04/29 09:57:12;;;;;;;9.07;4.80;;;17.10;65.20;;;;;;4960779;29;20427;-80
2022/04/29 09:59:44;;;;;;;5.57;4.20;;;17.30;69.60;;;;;;4956049;29;20051;-80
2022/04/29 10:02:18;;;;;;;9.10;4.13;;;17.40;68.20;;;;;;4957833;29;20031;-80
2022/04/29 10:04:47;;;;;;;4.72;3.53;;;17.00;64.80;;;;;;4962461;29;20125;-80
2022/04/29 10:07:15;;;;;;;5.65;4.45;;;17.10;66.00;;;;;;4960743;29;20035;-80
2022/04/29 10:09:55;;;;;;;8.07;5.10;;;17.10;66.90;;;;;;4955948;29;20042;-80
2022/04/29 10:12:23;;;;;;;5.07;3.92;;;17.50;68.50;;;;;;4957037;29;20458;-80
2022/04/29 10:14:53;;;;;;;5.65;4.38;;;17.20;66.40;;;;;;4957783;29;20260;-80
2022/04/29 10:22:51;;;;;;;5.28;3.85;;;18.00;63.00;;;;;;4976653;28;20062;-79
2022/04/29 10:25:19;;;;;;;4.75;3.65;;;17.70;62.80;;;;;;4977991;28;20030;-79
2022/04/29 10:27:45;;;;;;;4.07;3.08;;;17.70;61.30;;;;;;4975466;28;20035;-79
2022/04/29 10:30:11;;;;;;;4.35;3.85;;;18.00;61.30;;;;;;4977608;28;20038;-79
2022/04/29 10:32:59;;;;;;;7.85;3.63;;;18.20;62.20;;;;;;4978669;28;20722;-81
2022/04/29 10:35:43;;;;;;;5.10;3.75;;;18.50;59.70;;;;;;4979493;28;20035;-79
2022/04/29 10:38:12;;;;;;;5.68;3.80;;;16.90;63.90;;;;;;4974146;28;20061;-81
2022/04/29 10:40:38;;;;;;;4.50;3.42;;;18.70;59.80;;;;;;4969252;28;20489;-83
2022/04/29 10:43:09;;;;;;;4.90;3.55;;;19.10;58.50;;;;;;4973638;28;20069;-80
2022/04/29 10:45:36;;;;;;;7.20;4.53;;;19.10;58.00;;;;;;4983981;28;20031;-82
2022/04/29 10:48:38;;;;;;;6.32;3.92;;;18.40;59.10;;;;;;4979752;28;20019;-81
2022/04/29 10:51:46;;;;;;;6.22;3.80;;;19.10;58.10;;;;;;4910919;29;20040;-81
2022/04/29 10:54:12;;;;;;;5.00;3.50;;;19.20;58.60;;;;;;4938613;29;20031;-81
2022/04/29 10:56:39;;;;;;;4.05;3.05;;;19.40;57.00;;;;;;4960328;29;20102;-82
2022/04/29 10:59:05;;;;;;;4.97;3.30;;;19.40;58.00;;;;;;4965929;29;20027;-82
2022/04/29 11:01:33;;;;;;;6.20;3.72;;;19.30;57.80;;;;;;4950314;29;20099;-82
2022/04/29 11:04:00;;;;;;;4.07;3.53;;;19.30;58.00;;;;;;4946736;29;20055;-80
2022/04/29 11:06:51;;;;;;;9.02;3.25;;;19.50;57.20;;;;;;4945837;28;20026;-83
2022/04/29 11:09:28;;;;;;;5.78;3.28;;;19.70;57.30;;;;;;4945774;29;20024;-82
2022/04/29 11:11:55;;;;;;;4.68;3.35;;;20.30;55.60;;;;;;4931071;29;20433;-80
2022/04/29 11:14:21;;;;;;;5.32;4.07;;;20.10;55.10;;;;;;4950167;29;20024;-80
2022/04/29 11:17:14;;;;;;;4.00;3.05;;;19.60;56.30;;;;;;4930145;29;20027;-82
2022/04/29 11:19:45;;;;;;;4.70;3.15;;;19.80;55.80;;;;;;4936753;29;20075;-81
2022/04/29 11:25:05;;;;;;;4.45;3.67;;;19.70;57.70;;;;;;4933434;29;20102;-82
2022/04/29 11:27:37;;;;;;;5.50;3.63;;;19.60;56.40;;;;;;4944411;29;20039;-82
2022/04/29 11:30:04;;;;;;;3.45;3.15;;;19.60;56.00;;;;;;4943268;29;20123;-81
2022/04/29 11:32:30;;;;;;;6.53;4.28;;;19.70;56.20;;;;;;4939478;29;20046;-81
2022/04/29 11:35:00;;;;;;;3.67;3.35;;;19.40;56.30;;;;;;4954864;29;20095;-82
2022/04/29 11:37:33;;;;;;;4.45;3.15;;;19.50;55.60;;;;;;4956899;29;20036;-82
2022/04/29 11:40:10;;;;;;;6.47;3.30;;;19.80;58.00;;;;;;4947006;29;20102;-84
2022/04/29 11:42:36;;;;;;;3.53;3.13;;;20.00;56.60;;;;;;4928799;29;20118;-79
2022/04/29 11:45:10;;;;;;;4.35;3.25;;;20.30;57.40;;;;;;4951284;29;20519;-78
2022/04/29 11:47:36;;;;;;;3.67;2.95;;;20.80;54.20;;;;;;4932355;29;20034;-79
2022/04/29 11:50:06;;;;;;;5.18;3.20;;;19.00;55.90;;;;;;4929479;29;20374;-78
2022/04/29 11:52:34;;;;;;;5.82;3.50;;;20.70;56.60;;;;;;4929297;29;20127;-79
2022/04/29 11:55:04;;;;;;;6.45;2.88;;;20.50;55.80;;;;;;4929908;29;20055;-79
2022/04/29 11:57:31;;;;;;;5.05;2.70;;;19.70;57.70;;;;;;4928369;29;20042;-78
2022/04/29 11:59:58;;;;;;;4.18;3.15;;;19.90;57.20;;;;;;4933119;29;20135;-78
2022/04/29 12:02:25;;;;;;;4.78;2.72;;;19.20;57.60;;;;;;4948397;29;20071;-78
2022/04/29 12:05:03;;;;;;;4.18;3.35;;;19.60;59.00;;;;;;4928011;29;20036;-79
2022/04/29 12:07:37;;;;;;;5.22;2.88;;;19.80;57.40;;;;;;4944674;29;20039;-78
2022/04/29 12:10:18;;;;;;;4.35;2.90;;;19.90;56.20;;;;;;4927940;29;20203;-79
2022/04/29 12:12:47;;;;;;;7.32;3.30;;;20.70;57.30;;;;;;4928845;29;20039;-79
2022/04/29 12:15:17;;;;;;;4.95;2.80;;;20.80;57.50;;;;;;4929349;29;20030;-78
2022/04/29 12:17:43;;;;;;;3.42;3.13;;;20.70;55.20;;;;;;4929693;29;20039;-78
2022/04/29 12:20:16;;;;;;;3.97;3.10;;;21.20;53.70;;;;;;4961635;28;20037;-79
2022/04/29 12:22:41;;;;;;;2.85;2.55;;;21.80;52.60;;;;;;4971317;28;20413;-80
2022/04/29 12:25:28;;;;;;;4.72;3.28;;;21.00;52.60;;;;;;4972221;28;20033;-93
2022/04/29 12:28:18;;;;;;;4.68;3.60;;;21.50;53.50;;;;;;4971415;28;20033;-90
2022/04/29 12:36:51;;;;;;;3.30;2.70;;;19.90;56.20;;;;;;4978197;28;20408;-80
2022/04/29 12:39:37;;;;;;;11.50;4.10;;;20.30;56.20;;;;;;4970116;28;20027;-79
2022/04/29 12:42:06;;;;;;;3.88;3.33;;;20.60;56.00;;;;;;4970307;28;20141;-84
2022/04/29 12:45:05;;;;;;;4.35;3.38;;;20.50;55.90;;;;;;4971951;28;20034;-77
2022/04/29 12:47:32;;;;;;;;;;;21.00;56.20;;;;;;4972557;28;20605;-76
2022/04/29 12:50:24;;;;;;;6.07;3.80;;;20.80;56.60;;;;;;4970580;28;19925;-76
2022/04/29 12:52:52;;;;;;;4.70;3.38;;;20.80;56.00;;;;;;4971046;28;20479;-77
2022/04/29 12:55:17;;;;;;;7.20;4.35;;;21.00;56.70;;;;;;4971350;28;20081;-75
2022/04/29 12:57:44;;;;;;;7.60;4.45;;;21.70;53.30;;;;;;4970589;28;20027;-76
2022/04/29 13:00:11;;;;;;;10.57;4.10;;;21.90;53.40;;;;;;4971496;28;20019;-76
2022/04/29 13:02:36;;;;;;;18.23;3.60;;;22.30;52.70;;;;;;4972082;28;20379;-76
2022/04/29 13:05:02;;;;;;;7.75;3.30;;;23.40;50.10;;;;;;4971826;28;20492;-78
2022/04/29 13:07:30;;;;;;;5.47;3.00;;;23.80;50.30;;;;;;4969911;28;20380;-76
2022/04/29 13:09:56;;;;;;;71.40;13.43;;;23.80;50.10;;;;;;4970095;28;20030;-77
2022/04/29 13:12:22;;;;;;;6.18;3.83;;;23.70;50.20;;;;;;4970365;28;20397;-79
2022/04/29 13:14:47;;;;;;;5.57;2.70;;;23.20;49.40;;;;;;4970133;28;20538;-78
2022/04/29 13:17:13;;;;;;;4.38;2.95;;;22.20;51.30;;;;;;4970345;28;20043;-77
2022/04/29 13:19:39;;;;;;;4.28;3.10;;;21.70;50.90;;;;;;4970376;28;20022;-77
2022/04/29 13:22:06;;;;;;;4.55;2.90;;;21.80;51.70;;;;;;4943412;28;20031;-77
2022/04/29 13:24:32;;;;;;;4.60;3.20;;;22.30;50.00;;;;;;4970974;28;20401;-78
2022/04/29 13:26:57;;;;;;;4.10;3.03;;;21.70;51.00;;;;;;4972385;28;20042;-80
2022/04/29 13:29:23;;;;;;;3.45;2.78;;;21.50;52.80;;;;;;4971627;28;20367;-78
2022/04/29 13:31:50;;;;;;;3.88;2.60;;;21.10;53.00;;;;;;4972481;28;20144;-76
2022/04/29 13:34:15;;;;;;;4.18;2.35;;;20.90;53.40;;;;;;4973403;28;20018;-78
2022/04/29 13:36:41;;;;;;;3.40;2.65;;;20.40;54.60;;;;;;4973212;28;20515;-77
2022/04/29 13:39:08;;;;;;;3.53;2.47;;;20.00;53.30;;;;;;4974931;28;20047;-76